Terminal Aerodrome Forecast
Issued by NWS St Louis, MO

Home | Current Version | Previous Version | Text Only | Print | Product List | Glossary On
Versions: 1 2 3 4 5 6 7 8 9 10 11 12 13 14 15 16 17 18 19
000
FTUS43 KLSX 150300 AAA
TAFCOU
TAF AMD
KCOU 150334Z 1504/1524 14009KT P6SM SCT040
     FM150600 15011KT 4SM -RA BR OVC050
      TEMPO 1508/1511 2SM RA BKN014
     FM151100 14014KT P6SM OVC015
     FM151800 20014G22KT P6SM VCSH BKN030=

USA.gov is the U.S. government's official web portal to all federal, state and local government web resources and services.